createdAt,value
2019-05-09T00:01:04.905Z,10.80
2019-05-09T00:05:10.307Z,11.00
2019-05-09T00:09:15.324Z,11.40
2019-05-09T00:13:20.277Z,11.40
2019-05-09T00:17:25.512Z,11.60
2019-05-09T00:21:38.883Z,11.70
2019-05-09T00:25:43.886Z,11.20
2019-05-09T00:29:49.933Z,10.70
2019-05-09T00:33:58.485Z,10.60
2019-05-09T00:38:05.252Z,10.50
2019-05-09T00:42:10.252Z,10.30
2019-05-09T00:46:23.596Z,10.20
2019-05-09T00:50:29.652Z,10.00
2019-05-09T00:54:35.227Z,10.10
2019-05-09T00:58:40.019Z,10.00
2019-05-09T01:02:45.014Z,10.10
2019-05-09T01:06:50.157Z,10.10
2019-05-09T01:11:08.470Z,9.90
2019-05-09T01:15:03.336Z,9.80
2019-05-09T01:19:08.594Z,9.80
2019-05-09T01:23:14.282Z,10.00
2019-05-09T01:27:19.488Z,9.90
2019-05-09T01:31:24.506Z,9.80
2019-05-09T01:35:30.260Z,9.90
2019-05-09T01:39:36.600Z,10.00
2019-05-09T01:43:43.716Z,10.10
2019-05-09T01:47:48.385Z,10.30
2019-05-09T01:51:53.798Z,10.20
2019-05-09T01:55:59.393Z,9.90
2019-05-09T02:00:05.496Z,9.80
2019-05-09T02:04:13.511Z,9.80
2019-05-09T02:08:18.280Z,9.90
2019-05-09T02:12:24.606Z,9.90
2019-05-09T02:16:46.564Z,9.80
2019-05-09T02:20:53.288Z,9.70
2019-05-09T02:24:58.780Z,9.80
2019-05-09T02:29:03.721Z,9.90
2019-05-09T02:33:08.738Z,10.00
2019-05-09T02:37:13.712Z,10.20
2019-05-09T02:41:19.722Z,10.30
2019-05-09T02:45:29.244Z,10.50
2019-05-09T02:49:34.235Z,10.90
2019-05-09T02:53:39.821Z,11.10
2019-05-09T02:57:48.782Z,11.30
2019-05-09T03:02:19.533Z,11.40
2019-05-09T03:06:28.354Z,11.50
2019-05-09T03:10:32.773Z,11.60
2019-05-09T03:14:38.492Z,11.60
2019-05-09T03:18:43.878Z,11.70
2019-05-09T03:22:48.999Z,11.70
2019-05-09T03:26:59.675Z,11.60
2019-05-09T03:31:09.251Z,11.50
2019-05-09T03:35:12.826Z,11.60
2019-05-09T03:39:18.488Z,11.70
2019-05-09T03:43:24.680Z,11.60
2019-05-09T03:47:37.558Z,11.60
2019-05-09T03:51:42.176Z,11.60
2019-05-09T03:55:48.047Z,11.60
2019-05-09T03:59:52.937Z,11.70
2019-05-09T04:03:58.504Z,11.70
2019-05-09T04:08:22.070Z,11.50
2019-05-09T04:12:28.371Z,11.50
2019-05-09T04:16:33.792Z,11.40
2019-05-09T04:20:38.660Z,11.50
2019-05-09T04:24:44.021Z,11.50
2019-05-09T04:28:49.016Z,11.50
2019-05-09T04:32:53.962Z,11.20
2019-05-09T04:36:59.165Z,11.10
2019-05-09T04:41:04.148Z,10.80
2019-05-09T04:45:17.807Z,10.70
2019-05-09T04:49:22.771Z,10.80
2019-05-09T04:53:28.591Z,10.90
2019-05-09T04:57:35.251Z,11.00
2019-05-09T05:01:58.153Z,11.00
2019-05-09T05:06:02.848Z,11.10
2019-05-09T05:10:09.120Z,11.10
2019-05-09T05:14:23.983Z,11.10
2019-05-09T05:18:28.974Z,11.20
2019-05-09T05:22:51.122Z,11.20
2019-05-09T05:26:57.908Z,11.10
2019-05-09T05:31:02.823Z,11.20
2019-05-09T05:35:30.432Z,11.00
2019-05-09T05:39:37.490Z,10.80
2019-05-09T05:43:44.740Z,10.40
2019-05-09T05:47:53.884Z,10.30
2019-05-09T05:51:58.933Z,10.20
2019-05-09T05:56:04.243Z,10.50
2019-05-09T06:00:11.225Z,10.60
2019-05-09T06:04:18.608Z,10.40
2019-05-09T06:08:23.953Z,10.50
2019-05-09T06:12:29.760Z,10.60
2019-05-09T06:16:37.545Z,10.60
2019-05-09T06:20:41.707Z,10.60
2019-05-09T06:24:47.831Z,10.80
2019-05-09T06:28:53.053Z,10.60
2019-05-09T06:32:59.085Z,10.70
2019-05-09T06:37:04.337Z,10.80
2019-05-09T06:41:12.065Z,11.10
2019-05-09T06:45:34.444Z,11.30
2019-05-09T06:49:42.069Z,11.50
2019-05-09T06:53:48.845Z,11.40
2019-05-09T06:57:53.609Z,11.30
2019-05-09T07:02:00.885Z,11.30
2019-05-09T07:06:13.273Z,11.50
2019-05-09T07:10:18.328Z,11.70
2019-05-09T07:14:37.958Z,11.50
2019-05-09T07:18:40.294Z,11.70
2019-05-09T07:22:48.574Z,11.90
2019-05-09T07:26:53.511Z,11.90
2019-05-09T07:31:07.527Z,12.00
2019-05-09T07:35:12.907Z,12.10
2019-05-09T07:39:17.881Z,12.10
2019-05-09T07:43:22.748Z,12.10
2019-05-09T07:47:28.228Z,12.20
2019-05-09T07:51:33.506Z,12.30
2019-05-09T07:55:38.377Z,12.30
2019-05-09T07:59:43.315Z,12.80
2019-05-09T08:03:49.121Z,12.90
2019-05-09T08:07:54.316Z,13.30
2019-05-09T08:11:59.263Z,13.60
2019-05-09T08:16:04.260Z,13.70
2019-05-09T08:20:09.688Z,13.40
2019-05-09T08:24:14.712Z,13.70
2019-05-09T08:28:20.137Z,13.80
2019-05-09T08:32:28.641Z,13.70
2019-05-09T08:36:32.947Z,13.50
2019-05-09T08:40:38.439Z,13.70
2019-05-09T08:44:43.763Z,13.80
2019-05-09T08:48:48.822Z,13.90
2019-05-09T08:52:57.464Z,14.10
2019-05-09T08:57:01.692Z,14.40
2019-05-09T09:01:10.228Z,14.30
2019-05-09T09:05:14.110Z,14.00
2019-05-09T09:09:19.329Z,14.20
2019-05-09T09:13:24.289Z,14.50
2019-05-09T09:17:29.192Z,14.50
2019-05-09T09:21:34.008Z,14.60
2019-05-09T09:25:39.294Z,14.90
2019-05-09T09:29:44.367Z,14.90
2019-05-09T09:33:49.271Z,15.00
2019-05-09T09:37:54.164Z,15.00
2019-05-09T09:41:59.035Z,15.20
2019-05-09T09:46:10.882Z,15.10
2019-05-09T09:50:10.829Z,15.10
2019-05-09T09:54:15.733Z,15.10
2019-05-09T09:58:20.637Z,15.00
2019-05-09T10:02:29.477Z,14.90
2019-05-09T10:06:34.367Z,15.10
2019-05-09T10:10:39.968Z,15.40
2019-05-09T10:14:49.596Z,15.60
2019-05-09T10:19:12.357Z,15.80
2019-05-09T10:23:20.769Z,16.20
2019-05-09T10:27:23.893Z,16.40
2019-05-09T10:31:28.818Z,16.20
2019-05-09T10:35:33.908Z,16.40
2019-05-09T10:39:38.825Z,16.90
2019-05-09T10:43:53.858Z,17.00
2019-05-09T10:47:58.838Z,17.00
2019-05-09T10:52:03.725Z,16.90
2019-05-09T10:56:09.737Z,17.40
2019-05-09T11:00:15.039Z,17.60
2019-05-09T11:04:20.042Z,17.30
2019-05-09T11:08:24.883Z,16.50
2019-05-09T11:12:29.785Z,16.00
2019-05-09T11:16:45.552Z,15.80
2019-05-09T11:20:41.437Z,15.50
2019-05-09T11:24:50.533Z,15.40
2019-05-09T11:28:52.828Z,14.80
2019-05-09T11:32:59.759Z,14.10
2019-05-09T11:37:05.426Z,13.80
2019-05-09T11:41:10.349Z,13.70
2019-05-09T11:45:17.714Z,13.60
2019-05-09T11:49:22.141Z,13.50
2019-05-09T11:53:28.755Z,13.20
2019-05-09T11:57:33.560Z,13.40
2019-05-09T12:01:39.834Z,14.00
2019-05-09T12:05:47.484Z,15.00
2019-05-09T12:09:52.005Z,15.90
2019-05-09T12:13:58.112Z,16.10
2019-05-09T12:18:08.409Z,16.60
2019-05-09T12:22:09.929Z,16.90
2019-05-09T12:26:17.732Z,17.40
2019-05-09T12:30:21.621Z,17.40
2019-05-09T12:34:27.655Z,17.00
2019-05-09T12:38:32.762Z,16.80
2019-05-09T12:42:39.262Z,17.30
2019-05-09T12:46:48.712Z,17.00
2019-05-09T12:50:54.055Z,17.40
2019-05-09T12:54:58.894Z,17.80
2019-05-09T12:59:03.783Z,18.40
2019-05-09T13:03:08.841Z,18.40
2019-05-09T13:07:13.985Z,18.20
2019-05-09T13:11:20.111Z,17.80
2019-05-09T13:15:33.467Z,17.90
2019-05-09T13:19:41.991Z,18.30
2019-05-09T13:23:52.243Z,18.70
2019-05-09T13:27:55.081Z,18.70
2019-05-09T13:32:00.168Z,18.40
2019-05-09T13:36:05.109Z,18.60
2019-05-09T13:40:10.338Z,19.30
2019-05-09T13:44:17.802Z,20.20
2019-05-09T13:48:32.653Z,20.50
2019-05-09T13:52:28.500Z,19.60
2019-05-09T13:56:33.413Z,19.20
2019-05-09T14:00:39.073Z,20.10
2019-05-09T14:04:44.691Z,19.40
2019-05-09T14:08:49.581Z,18.50
2019-05-09T14:13:05.729Z,19.00
2019-05-09T14:17:01.383Z,19.30
2019-05-09T14:21:07.761Z,19.00
2019-05-09T14:25:13.037Z,18.10
2019-05-09T14:29:20.452Z,17.70
2019-05-09T14:33:24.479Z,17.70
2019-05-09T14:37:29.372Z,17.60
2019-05-09T14:41:34.224Z,17.60
2019-05-09T14:45:39.046Z,17.50
2019-05-09T14:49:44.768Z,17.50
2019-05-09T14:53:49.958Z,17.60
2019-05-09T14:57:54.799Z,16.60
2019-05-09T15:01:59.647Z,15.40
2019-05-09T15:06:07.568Z,15.10
2019-05-09T15:10:13.140Z,15.60
2019-05-09T15:14:18.324Z,16.20
2019-05-09T15:18:23.549Z,16.40
2019-05-09T15:22:28.593Z,16.70
2019-05-09T15:26:33.488Z,17.30
2019-05-09T15:30:38.664Z,17.40
2019-05-09T15:34:43.823Z,17.40
2019-05-09T15:38:48.839Z,17.70
2019-05-09T15:42:54.034Z,18.70
2019-05-09T15:47:04.718Z,19.20
2019-05-09T15:51:09.627Z,18.80
2019-05-09T15:55:14.631Z,19.60
2019-05-09T15:59:19.793Z,20.30
2019-05-09T16:03:24.733Z,20.80
2019-05-09T16:07:29.724Z,20.30
2019-05-09T16:11:34.893Z,20.00
2019-05-09T16:15:39.825Z,20.70
2019-05-09T16:19:44.816Z,20.90
2019-05-09T16:23:50.503Z,21.10
2019-05-09T16:27:55.364Z,19.20
2019-05-09T16:32:00.180Z,18.30
2019-05-09T16:36:05.396Z,17.80
2019-05-09T16:40:10.760Z,17.50
2019-05-09T16:44:18.329Z,17.30
2019-05-09T16:48:22.568Z,17.00
2019-05-09T16:52:27.519Z,17.20
2019-05-09T16:56:33.113Z,17.20
2019-05-09T17:00:42.944Z,16.90
2019-05-09T17:04:48.159Z,16.50
2019-05-09T17:08:52.992Z,16.20
2019-05-09T17:12:58.361Z,16.30
2019-05-09T17:17:04.052Z,16.10
2019-05-09T17:21:48.100Z,16.10
2019-05-09T17:25:52.988Z,16.30
2019-05-09T17:29:58.429Z,16.40
2019-05-09T17:34:03.975Z,16.40
2019-05-09T17:38:08.933Z,16.40
2019-05-09T17:42:14.237Z,16.20
2019-05-09T17:46:19.493Z,16.40
2019-05-09T17:50:24.425Z,15.80
2019-05-09T17:54:29.899Z,15.60
2019-05-09T17:58:35.019Z,15.50
2019-05-09T18:02:39.948Z,15.60
2019-05-09T18:06:45.241Z,15.40
2019-05-09T18:10:50.179Z,14.90
2019-05-09T18:14:55.547Z,14.80
2019-05-09T18:19:01.265Z,15.10
2019-05-09T18:23:08.249Z,14.90
2019-05-09T18:27:13.644Z,14.80
2019-05-09T18:31:18.640Z,14.80
2019-05-09T18:35:24.820Z,14.70
2019-05-09T18:39:29.852Z,14.90
2019-05-09T18:43:35.068Z,14.90
2019-05-09T18:47:39.973Z,14.80
2019-05-09T18:51:44.946Z,14.60
2019-05-09T18:55:50.186Z,14.60
2019-05-09T18:59:55.127Z,14.50
2019-05-09T19:04:00.149Z,14.90
2019-05-09T19:08:05.075Z,15.00
2019-05-09T19:12:10.021Z,15.00
2019-05-09T19:16:33.304Z,14.50
2019-05-09T19:20:55.554Z,14.40
2019-05-09T19:24:59.618Z,14.30
2019-05-09T19:29:05.573Z,14.10
2019-05-09T19:33:10.497Z,14.10
2019-05-09T19:37:15.444Z,14.10
2019-05-09T19:41:20.386Z,14.00
2019-05-09T19:45:25.696Z,13.90
2019-05-09T19:49:30.633Z,13.90
2019-05-09T19:53:35.535Z,14.10
2019-05-09T19:57:40.592Z,14.00
2019-05-09T20:01:45.518Z,14.10
2019-05-09T20:05:51.147Z,14.30
2019-05-09T20:10:02.547Z,14.20
2019-05-09T20:14:23.917Z,14.30
2019-05-09T20:18:28.844Z,14.20
2019-05-09T20:22:33.935Z,14.30
2019-05-09T20:26:39.029Z,13.80
2019-05-09T20:30:43.963Z,13.90
2019-05-09T20:34:49.404Z,13.60
2019-05-09T20:38:54.501Z,13.50
2019-05-09T20:43:00.838Z,13.30
2019-05-09T20:47:06.202Z,13.10
2019-05-09T20:51:11.319Z,13.10
2019-05-09T20:55:16.446Z,13.30
2019-05-09T20:59:21.615Z,13.20
2019-05-09T21:03:26.728Z,13.10
2019-05-09T21:07:31.761Z,13.00
2019-05-09T21:11:37.275Z,13.10
2019-05-09T21:15:42.574Z,13.00
2019-05-09T21:19:47.583Z,12.90
2019-05-09T21:23:52.814Z,12.90
2019-05-09T21:27:57.949Z,13.00
2019-05-09T21:32:03.041Z,13.00
2019-05-09T21:36:07.990Z,13.10
2019-05-09T21:40:13.309Z,12.90
2019-05-09T21:44:18.356Z,12.50
2019-05-09T21:48:23.493Z,12.70
2019-05-09T21:52:28.406Z,12.70
2019-05-09T21:56:33.456Z,12.60
2019-05-09T22:00:41.344Z,12.70
2019-05-09T22:04:48.101Z,12.70
2019-05-09T22:08:53.044Z,12.60
2019-05-09T22:12:58.026Z,12.50
2019-05-09T22:17:08.954Z,12.60
2019-05-09T22:21:23.140Z,12.50
2019-05-09T22:25:29.105Z,12.50
2019-05-09T22:29:34.012Z,12.40
2019-05-09T22:33:39.157Z,12.50
2019-05-09T22:37:44.144Z,12.40
2019-05-09T22:41:49.159Z,12.40
2019-05-09T22:45:54.576Z,12.30
2019-05-09T22:49:59.524Z,12.30
2019-05-09T22:54:12.837Z,12.20
2019-05-09T22:58:11.145Z,12.20
2019-05-09T23:02:17.260Z,12.30
2019-05-09T23:06:22.187Z,12.10
2019-05-09T23:10:27.054Z,12.00
2019-05-09T23:14:32.188Z,12.00
2019-05-09T23:18:37.403Z,11.90
2019-05-09T23:22:42.308Z,12.00
2019-05-09T23:26:47.281Z,11.80
2019-05-09T23:30:54.181Z,11.90
2019-05-09T23:34:59.120Z,12.00
2019-05-09T23:39:15.963Z,12.00
2019-05-09T23:43:20.905Z,12.00
2019-05-09T23:47:27.246Z,12.10
2019-05-09T23:51:45.287Z,12.00
2019-05-09T23:56:08.454Z,12.00
